Pilar Observatorio, Argentina

4:40 AM ART on July 26, 2014 (GMT -0300)
Ferreyra (ICORDOBA28) Elev 1335 ft | 31.45 °S, 64.12 °W | Change Station

Current weather conditions updated 9 minutes ago

Clear
Clear
43.3 °F
Feels Like 43 °F
N
0.0
Wind Variable Wind from SW
Gusts 0.0 mph

Today is forecast to be Much Cooler than yesterday.

Today
High -- | Low -- °F
--% Chance of Precip.
Yesterday
High -- | Low -- °F
Precip. -- in
8:07 AM 6:36 PM
Waning Crescent, 0% visible
Pressure 30.18 in
Visibility -9999.0 miles
Clouds
Windchill 43 °F
Dew Point 25 °F
Humidity 49%
Rainfall 0.00 in
Snow Depth Not available.
UV Not available.
Pollen Not available.
Air Quality Not available.
Flu Activity Not available.
METAR SACO 260700Z 27006KT CAVOK 07/M05 Q1022

More Conditions Fewer Conditions

Pressure 30.18 in
Visibility -9999.0 miles
Clouds
Windchill 43 °F
Dew Point 25 °F
Humidity 49%
Rainfall 0.00 in
Snow Depth Not available.
UV Not available.
Pollen Not available.
Air Quality Not available.
Flu Activity Not available.
METAR SACO 260700Z 27006KT CAVOK 07/M05 Q1022

More Conditions Fewer Conditions

10-Day Weather Forecast

Almanac

Astronomy

Jul. 26, 2014 Rise Set
Actual Time 8:07 AM ART 6:36 PM ART
Civil Twilight 7:42 AM ART 7:02 PM ART
Nautical Twilight 7:12 AM ART 7:31 PM ART
Astronomical Twilight 6:43 AM ART 8:00 PM ART
Moon 7:35 AM ART 6:37 PM ART
Length of Visible Light 11h 20m
Length of Day
10h 28m
Tomorrow will be 1m 15s longer.
Waning Crescent, 0% of the Moon is Illuminated
Today
Waning Crescent
Jul 26
New
Aug 3
First Quarter
Aug 10
Full
Aug 17
Last Quarter

Yesterday's Extremes

Country Highs Country Lows

Community

WunderPhotos

Upload Photos

1,737,527 photos uploaded!

Nearby

Snow Depth

Not available.

Earthquake Activity

City Distance Mag. Time & Date
No recent earthquake activity has been reported nearby.
Minimum magnitude displayed is 2.5.

Coastal Water Temperatures

Place Temperature
No Stations Reporting

Nearby Weather Stations

Station Location Temp. Windchill Dew Point Humidity Wind Precip. Elev Updated Type
Ferreyra, Cordoba 43.3 °F 43 °F 25 °F 49% SW  at  0.0 mph 0.00 in / hr 1335 ft 4:31 AM ART Normal

Show More Stations Show Fewer Stations